May 2018 Free Tips Profit & Loss Tables

 


Horse racing tips we post are now also on twitter click here to follow us.


May 2018 Free Tip Selections Breakdown

Total SelectionsTotal 1stsTotal 2ndsTotal 3rdsTotal 4thsTotal VoidMonths Profit / Loss
9317151007+25.84
Full breakdown of all selections wins and places.
Points profit total is only for all wins and not the places.

May 2018 Free Tips Win Only Profit / Loss Table

May 2018 free tips profit or loss table Win Only 1pt=£1
DateTipFraction Odds & Decimal OddsWin Place or LoseResult + or - pts 1pt =£1Profit/Loss £
01/05/2018Yarmouth 15:45 4 Majestic Moon10/1 11.00Lost 4thLoss -1pt-1
01/05/2018 Yarmouth 16:15 1 Sonnet Rose11/2 6.503rd PlacedLoss -1pt-2
01/05/2018Yarmouth 17:50 2 King OswaldVoid Non RunnerVoid Non RunnerVoid Non Runner-2
02/05/2018Ascot 15:10 3 Montaly13/2 7.50Lost 4thLoss -1pt-3
02/05/2018Brighton 17:35 4 Groundnut9/2 5.50Lost 5thLoss -1pt-4
02/05/2018Pontefract 17:40 8 Coiste BodharVoid Non RunnerVoid Non RunnerVoid Non Runner-4
03/05/2018Southwell 14:20 3 Lean On Pete10/3 4.333rd PlacedLoss -1pt-5
03/05/2018 Chelmsford 19:20 1 Constantino5/1 6.00Lost 3rd(6 Horses)Loss -1pt-6
03/05/2018 Chelmsford 20:20 2 Billyoakes5/1 6.002nd PlacedLoss -1pt-7
04/05/2018Lingfield 14:50 4 Crossing The Line6/4 2.502nd PlacedLoss -1pt-8
04/05/2018 Musselburgh 15:40 3 Montague9/1 10.002nd PlacedLoss -1pt-9
04/05/2018Cheltenham 17:30 9 Velvet CognacVoid Non RunnerVoid Non RunnerVoid Non Runner-9
05/05/2018Newmarket 13:50 1 Spark Plug20/1 21.00Lost 6thLoss -1pt-10
05/05/2018Newmarket 15:35 13 Saxon Warrior4/1 5.001st WonWin +5pts-5
05/05/2018Newmarket 16:45 5 Old Persian5/2 3.502nd PlacedLoss -1pt-6
06/05/2018Towcester 14:40 2 The Sweeney3/1 4.00Lost 3rd(7 Horses)Loss -1pt-7
06/05/2018Newmarket 15:35 7 Laurens9/1 10.002nd PlacedLoss -1pt-8
06/05/2018Newmarket 16:10 1 Barend Boy5/2 3.50Lost 3rd(6 Horses)Loss -1pt-9
07/05/2018Bath 14:50 10 Black Truffle10/3 4.33Lost 5thLoss -1pt-10
07/05/2018Kempton 16:05 3 Rothman10/3 4.33Lost 4thLoss -1pt-11
07/05/2018 Windsor 18:05 1 Kodiac Express13/2 7.502nd PlacedLoss -1pt-12
08/05/2018Fakenham 14:10 1 Ascendant13/8 2.631st WonWin +2.63pts-9.37
08/05/2018Exeter 17:50 6 Mrs Miggins14/1 15.003rd PlacedLoss -1pt-10.37
08/05/2018Exeter 19:20 10 Triple Chief10/1 11.002nd PlacedLoss -1pt-11.37
09/05/2018Chester 16:35 6 Ginbar14/1 15.00Lost 10thLoss -1pt-12.37
09/05/2018Fontwell 19:45 2 Ramore Will2/1 3.00Lost 5thLoss -1pt-13.37
09/05/2018Wolverhampton 20:55 3 Furni Factors7/1 8.003rd PlacedLoss -1pt-14.37
10/05/2018Chelmsford 18:10 5 Tadbir4/1 5.002nd PlacedLoss -1pt-15.37
10/05/2018Chelmsford 19:10 5 No More Thrills6/1 7.00Lost 5thLoss -1pt-16.37
10/05/201819:40 2 Beautiful Memory8/1 9.00Lost 7thLoss -1pt-17.37
11/05/2018Market Rasen 14:05 7 Shady Glen10/1 11.001st Won @10/1Win 11pts-6.37
11/05/2018Lingfield 14:50 1 Tin Hat11/4 3.753rd PlacedLoss -1pt-7.37
11/05/2018Ripon 19:30 1 Mutamaded5/1 6.001st Won1st Won-1.37
12/05/2018Hexham 14:55 1 Dica6/1 7.00Lost PULoss -1pt-2.37
12/05/2018Thirsk 19:45 9 Kinloch Pride8/1 9.00Lost 8thLoss -1pt-3.37
12/05/2018Warwick 20:30 10 Nobby9/2 5.501st WonWin +5.50+2.13
13/05/2018Ludlow 15:35 4 Festive Affair9/1 10.001st Won @ 9/1Win +10pts+12.13
13/05/2018Plumpton 16:55 7 Roparta Avenue3/1 4.002nd PlacedLoss -1pt+11.13
13/05/2018Southwell 17:05 10 Houndscourt11/1 12.00Lost 6thLoss -1pt+10.13
14/05/2018Catterick 14:30 2 Riviere Argentee3/1 4.001st WonWin +4pts+14.13
14/05/2018Wolverhampton 14:55 9 Raashdy11/4 3.75Lost 10thLoss -1pt+13.13
14/05/2018Kempton 15:45 1 Bertie Barnes5/1 6.00Lost 8thLoss -1pt+12.13
15/05/2018Sedgefield 14:00 5 Rockliffe7/2 4.50Lost PULoss -1pt+11.13
15/05/2018Sedgefield 17:00 11 Sixties Star6/1 7.002nd PlacedLoss -1pt+10.13
15/05/2018Chepstow 20:20 7 Ocean GaleVoid Non RunnerVoid Non RunnerVoid Non Runner+10.13
16/05/2018York 14:20 4 Island Brave8/1 9.00Lost 5thLoss -1pt+9.13
16/05/2018York 16:05 5 Give And Take4/1 5.001st WonWin +5pts+14.13
16/05/2018 York 17:05 2 Delft Dancer8/1 9.00Lost 5thLoss -1pt+13.13
17/05/2018York 15:30 7 Wells Farhh Go6/1 7.00Lost 6thLoss -1pt+12.13
17/05/2018Fontwell 18:05 1 Herbert Park 6/4 2.50Lost 5thLoss -1pt+11.13
17/05/2018 Fontwell 20:25 2 StarkieVoid Non Runner Void Non Runner Void Non Runner +11.13
18/05/2018Hamilton 17:55 1 Mr Buttons5/2 3.503rd PlacedLoss -1pt+10.13
18/05/2018 Hamilton 18:25 1 Mutarakez2/1 3.003rd PlacedLoss -1pt+9.13
18/05/2018Hamilton 19:00 9 Cliff Bay12/1 13.00Lost 12thLoss -1pt+8.13
19/05/2018Newbury 15:00 7 He’s Amazing7/1 8.00Lost 5thLoss -1pt+7.13
19/05/20187/2 4.501st Won @ 7/2Win +4.50pts+11.63
19/05/2018Thirsk 17:40 1 African Jazz4/1 5.003rd PlacedLoss -1pt+10.63
20/05/2018Market Rasen 14:10 1 L’inganno Felice7/4 2.751st WonWin +2.75pts+13.38
20/05/2018Ripon 14:55 2 Indomeneo6/1 7.001st WonWin +7pts+20.38
20/05/2018Stratford 16:10 1 The Flame6/4 2.50Lost PULoss -1pt+19.38
21/05/2018Carlisle 15:45 1 Raselasad11/4 3.75Lost 6thLoss -1pt+18.38
21/05/2018Leicester 18:00 1 Cococabala9/2 5.50Lost 9thLoss -1pt+17.38
21/05/2018Windsor 20:45 3 Essenaitch11/4 3.752nd PlacedLoss -1pt+16.38
22/05/2018Chepstow 17:25 5 The Last Debutante7/2 4.50Lost 6thLoss -1pt+15.38
22/05/2018Hexham 19:00 3 Chanceiton11/4 3.75Lost 5thLoss -1pt+14.38
22/05/2018 Huntingdon 19:10 3 Whatthebutlersaw6/1 7.002nd PlacedLoss -1pt+13.38
23/05/2018Ayr 14:30 4 Be BoldVoid Non runnerVoid Non runnerVoid Non runner+13.38
23/05/2018Ayr 15:05 4 Star Cracker9/2 5.502nd PlacedLoss -1pt+12.38
23/05/2018Ayr 16:35 3 Euro Nightmare9/1 10.001st WonWin +10pts+22.38
24/05/2018Chelmsford 19:45 3 Dark Red5/1 6.003rd PlacedLoss -1pt+21.38
24/05/2018Chelmsford 20:20 1 Yeah Baby Yeah15/8 2.861st Won @ 15/8Win +2.86+24.24
24/05/2018Chelmsford 20:50 2 Fairway To Heaven9/2 5.50Lost 6thLoss -1pt+23.24
25/05/2018Haydock 14:55 1 Ginbar8/1 9.00Lost 8thLoss -1pt+22.34
25/05/2018Bath 15:20 1 Juneau6/4 2.501st WonWin +2.50pts+24.84
25/05/2018Goodwood 16:55 3 Medburn Cutler8/1 9.00Lost 4thLoss -1pt+23.84
26/05/2018Chester 14:20 1 Gold Filigree10/3 4.33Lost 4thLoss -1pt+22.84
26/05/2018Chester 14:55 1 Above The Rest14/1 15.00Lost 7thLoss -1pt+21.84
26/05/2018Goodwood 15:45 3 Duke Of Bronte16/1 17.003rd PlacedLoss -1pt+20.84
27/05/2018Uttoxeter 13:55 8 Zebi Boy9/2 5.501st Won @ 9/2Win +5.50pts+26.34
27/05/2018Fontwell 14:15 1 Don Lami11/4 3.752nd PlacedLoss -1pt+25.34
27/05/2018Fontwell 17:45 9 HowlongisafootVoid Non RunnerVoid Non RunnerVoid Non Runner+25.34
28/05/2018Huntingdon 14:00 2 Gothic Empire16/1 17.00Lost PULoss -1pt+24.34
28/05/2018Huntingdon 14:35 1 Stuccodor5/1 6.001st Won @ 5/1Win +6pts+30.34
28/05/2018Huntingdon 15:45 3 Kings Temptation7/4 2.75Lost FellLoss -1pt+29.34
29/05/2018Wolverhampton 18:10 7 Ty Rock Brandy7/2 4.501st WonWin +4.50pts+33.84
29/05/2018Wolverhampton 20:40 8 Beatbybeatbybeat15/2 8.50Lost 4thLoss -1pt+32.84
29/05/2018Wolverhampton 21:10 4 Zapateado11/2 6.502nd PlacedLoss -1pt+31.84
30/05/2018Beverley 14:00 1 Young Tiger11/2 6.50Lost 14thLoss -1pt+30.84
30/05/2018Beverley 16:00 4 Lean On Pete13/2 7.50Lost 7thLoss -1pt+29.84
30/05/2018Beverley 17:00 5 Amadeus7/2 4.50Lost 8thLoss -1pt+28.84
31/05/2018Wolverhampton 14:20 2 Revenge5/2 3.50Lost 10thLoss -1pt+27.84
31/05/2018Wolverhampton 16:50 7 Final Attack9/2 5.50Lost 4thLoss -1pt+26.84
31/05/2018 Lingfield Harlequin Striker5/1 6.00Lost 5thLoss -1pt+25.84

Horse racing tips we post are now also on twitter click here to follow us.